sensor_id;sensor_type;location;lat;lon;timestamp;P1;durP1;ratioP1;P2;durP2;ratioP2
35644;SDS011;21764;52.042;6.830;2023-03-14T00:03:35;10.70;;;3.30;;
35644;SDS011;21764;52.042;6.830;2023-03-14T00:08:36;13.50;;;4.10;;
35644;SDS011;21764;52.042;6.830;2023-03-14T00:13:37;10.80;;;3.15;;
35644;SDS011;21764;52.042;6.830;2023-03-14T00:18:38;15.73;;;3.75;;
35644;SDS011;21764;52.042;6.830;2023-03-14T00:23:40;13.82;;;3.00;;
35644;SDS011;21764;52.042;6.830;2023-03-14T00:28:42;15.93;;;3.67;;
35644;SDS011;21764;52.042;6.830;2023-03-14T00:33:44;18.48;;;3.25;;
35644;SDS011;21764;52.042;6.830;2023-03-14T00:38:45;16.65;;;3.20;;
35644;SDS011;21764;52.042;6.830;2023-03-14T00:43:48;14.43;;;3.45;;
35644;SDS011;21764;52.042;6.830;2023-03-14T00:48:49;12.90;;;3.00;;
35644;SDS011;21764;52.042;6.830;2023-03-14T00:53:50;15.75;;;3.25;;
35644;SDS011;21764;52.042;6.830;2023-03-14T00:58:53;13.23;;;3.20;;
35644;SDS011;21764;52.042;6.830;2023-03-14T01:03:56;12.32;;;2.85;;
35644;SDS011;21764;52.042;6.830;2023-03-14T01:08:57;10.15;;;3.10;;
35644;SDS011;21764;52.042;6.830;2023-03-14T01:13:59;22.52;;;4.45;;
35644;SDS011;21764;52.042;6.830;2023-03-14T01:19:00;14.88;;;3.22;;
35644;SDS011;21764;52.042;6.830;2023-03-14T01:24:02;14.02;;;3.13;;
35644;SDS011;21764;52.042;6.830;2023-03-14T01:29:04;15.00;;;3.33;;
35644;SDS011;21764;52.042;6.830;2023-03-14T01:34:05;17.33;;;3.28;;
35644;SDS011;21764;52.042;6.830;2023-03-14T01:39:05;11.07;;;3.47;;
35644;SDS011;21764;52.042;6.830;2023-03-14T01:44:10;17.27;;;3.55;;
35644;SDS011;21764;52.042;6.830;2023-03-14T01:49:16;18.02;;;3.78;;
35644;SDS011;21764;52.042;6.830;2023-03-14T01:54:31;19.77;;;3.38;;
35644;SDS011;21764;52.042;6.830;2023-03-14T01:59:36;15.20;;;3.60;;
35644;SDS011;21764;52.042;6.830;2023-03-14T02:04:38;13.90;;;2.90;;
35644;SDS011;21764;52.042;6.830;2023-03-14T02:09:40;14.20;;;3.08;;
35644;SDS011;21764;52.042;6.830;2023-03-14T02:14:42;9.52;;;2.30;;
35644;SDS011;21764;52.042;6.830;2023-03-14T02:25:00;13.27;;;2.35;;
35644;SDS011;21764;52.042;6.830;2023-03-14T02:30:10;10.25;;;2.63;;
35644;SDS011;21764;52.042;6.830;2023-03-14T02:35:15;12.88;;;2.28;;
35644;SDS011;21764;52.042;6.830;2023-03-14T02:40:19;10.25;;;2.00;;
35644;SDS011;21764;52.042;6.830;2023-03-14T02:50:21;13.35;;;2.45;;
35644;SDS011;21764;52.042;6.830;2023-03-14T02:55:24;14.73;;;2.22;;
35644;SDS011;21764;52.042;6.830;2023-03-14T03:00:26;12.60;;;2.22;;
35644;SDS011;21764;52.042;6.830;2023-03-14T03:05:27;17.02;;;2.40;;
35644;SDS011;21764;52.042;6.830;2023-03-14T03:10:28;11.05;;;2.25;;
35644;SDS011;21764;52.042;6.830;2023-03-14T03:15:29;14.55;;;2.20;;
35644;SDS011;21764;52.042;6.830;2023-03-14T03:20:30;16.20;;;2.38;;
35644;SDS011;21764;52.042;6.830;2023-03-14T03:25:30;15.77;;;2.83;;
35644;SDS011;21764;52.042;6.830;2023-03-14T03:30:31;14.90;;;2.67;;
35644;SDS011;21764;52.042;6.830;2023-03-14T03:35:31;16.65;;;2.70;;
35644;SDS011;21764;52.042;6.830;2023-03-14T03:40:32;13.85;;;2.88;;
35644;SDS011;21764;52.042;6.830;2023-03-14T03:45:33;10.32;;;2.40;;
35644;SDS011;21764;52.042;6.830;2023-03-14T03:50:34;10.90;;;2.40;;
35644;SDS011;21764;52.042;6.830;2023-03-14T03:55:34;15.43;;;2.08;;
35644;SDS011;21764;52.042;6.830;2023-03-14T04:00:35;11.95;;;2.40;;
35644;SDS011;21764;52.042;6.830;2023-03-14T04:05:36;17.95;;;3.08;;
35644;SDS011;21764;52.042;6.830;2023-03-14T04:10:36;14.13;;;2.78;;
35644;SDS011;21764;52.042;6.830;2023-03-14T04:15:37;11.57;;;2.47;;
35644;SDS011;21764;52.042;6.830;2023-03-14T04:20:38;13.60;;;2.65;;
35644;SDS011;21764;52.042;6.830;2023-03-14T04:25:38;17.80;;;2.80;;
35644;SDS011;21764;52.042;6.830;2023-03-14T04:30:39;18.13;;;2.47;;
35644;SDS011;21764;52.042;6.830;2023-03-14T04:35:39;15.50;;;3.08;;
35644;SDS011;21764;52.042;6.830;2023-03-14T04:40:40;19.02;;;2.53;;
35644;SDS011;21764;52.042;6.830;2023-03-14T04:45:41;20.60;;;2.90;;
35644;SDS011;21764;52.042;6.830;2023-03-14T04:50:42;16.15;;;2.67;;
35644;SDS011;21764;52.042;6.830;2023-03-14T04:55:47;14.98;;;2.65;;
35644;SDS011;21764;52.042;6.830;2023-03-14T05:00:49;12.38;;;2.35;;
35644;SDS011;21764;52.042;6.830;2023-03-14T05:05:50;11.80;;;2.20;;
35644;SDS011;21764;52.042;6.830;2023-03-14T05:10:54;13.88;;;2.28;;
35644;SDS011;21764;52.042;6.830;2023-03-14T05:16:02;22.48;;;3.70;;
35644;SDS011;21764;52.042;6.830;2023-03-14T05:21:07;10.90;;;2.97;;
35644;SDS011;21764;52.042;6.830;2023-03-14T05:26:08;20.05;;;2.85;;
35644;SDS011;21764;52.042;6.830;2023-03-14T05:31:08;15.15;;;2.63;;
35644;SDS011;21764;52.042;6.830;2023-03-14T05:36:09;12.82;;;2.65;;
35644;SDS011;21764;52.042;6.830;2023-03-14T05:41:10;13.18;;;2.75;;
35644;SDS011;21764;52.042;6.830;2023-03-14T05:46:11;13.50;;;2.20;;
35644;SDS011;21764;52.042;6.830;2023-03-14T05:51:11;13.02;;;2.20;;
35644;SDS011;21764;52.042;6.830;2023-03-14T05:56:12;11.52;;;2.17;;
35644;SDS011;21764;52.042;6.830;2023-03-14T06:01:13;14.35;;;2.35;;
35644;SDS011;21764;52.042;6.830;2023-03-14T06:06:13;9.75;;;2.10;;
35644;SDS011;21764;52.042;6.830;2023-03-14T06:11:14;7.72;;;1.55;;
35644;SDS011;21764;52.042;6.830;2023-03-14T06:16:14;10.88;;;2.03;;
35644;SDS011;21764;52.042;6.830;2023-03-14T06:21:15;9.32;;;1.88;;
35644;SDS011;21764;52.042;6.830;2023-03-14T06:26:16;17.15;;;2.88;;
35644;SDS011;21764;52.042;6.830;2023-03-14T06:31:17;9.68;;;2.33;;
35644;SDS011;21764;52.042;6.830;2023-03-14T06:36:17;5.05;;;2.70;;
35644;SDS011;21764;52.042;6.830;2023-03-14T06:41:18;6.07;;;3.85;;
35644;SDS011;21764;52.042;6.830;2023-03-14T06:46:19;5.78;;;2.08;;
35644;SDS011;21764;52.042;6.830;2023-03-14T06:51:20;9.10;;;2.25;;
35644;SDS011;21764;52.042;6.830;2023-03-14T06:56:21;8.32;;;2.50;;
35644;SDS011;21764;52.042;6.830;2023-03-14T07:01:25;5.90;;;1.88;;
35644;SDS011;21764;52.042;6.830;2023-03-14T07:06:27;7.95;;;1.92;;
35644;SDS011;21764;52.042;6.830;2023-03-14T07:11:31;5.70;;;2.35;;
35644;SDS011;21764;52.042;6.830;2023-03-14T07:16:32;8.25;;;2.75;;
35644;SDS011;21764;52.042;6.830;2023-03-14T07:21:33;6.95;;;4.07;;
35644;SDS011;21764;52.042;6.830;2023-03-14T07:26:35;6.63;;;2.33;;
35644;SDS011;21764;52.042;6.830;2023-03-14T07:31:35;6.63;;;2.35;;
35644;SDS011;21764;52.042;6.830;2023-03-14T07:36:36;15.13;;;4.00;;
35644;SDS011;21764;52.042;6.830;2023-03-14T07:41:37;8.38;;;3.25;;
35644;SDS011;21764;52.042;6.830;2023-03-14T07:46:37;7.78;;;3.10;;
35644;SDS011;21764;52.042;6.830;2023-03-14T07:51:38;7.70;;;3.33;;
35644;SDS011;21764;52.042;6.830;2023-03-14T07:56:39;9.63;;;3.70;;
35644;SDS011;21764;52.042;6.830;2023-03-14T08:01:39;8.35;;;4.25;;
35644;SDS011;21764;52.042;6.830;2023-03-14T08:06:40;8.05;;;4.30;;
35644;SDS011;21764;52.042;6.830;2023-03-14T08:11:41;10.05;;;4.35;;
35644;SDS011;21764;52.042;6.830;2023-03-14T08:16:41;7.40;;;4.45;;
35644;SDS011;21764;52.042;6.830;2023-03-14T08:21:42;7.45;;;3.40;;
35644;SDS011;21764;52.042;6.830;2023-03-14T08:26:43;7.00;;;3.00;;
35644;SDS011;21764;52.042;6.830;2023-03-14T08:31:43;5.38;;;3.50;;
35644;SDS011;21764;52.042;6.830;2023-03-14T08:36:44;8.35;;;4.72;;
35644;SDS011;21764;52.042;6.830;2023-03-14T08:41:45;10.50;;;4.90;;
35644;SDS011;21764;52.042;6.830;2023-03-14T08:46:45;2.78;;;1.30;;
35644;SDS011;21764;52.042;6.830;2023-03-14T08:51:46;1.92;;;1.05;;
35644;SDS011;21764;52.042;6.830;2023-03-14T08:56:47;5.97;;;1.35;;
35644;SDS011;21764;52.042;6.830;2023-03-14T09:01:47;2.50;;;0.90;;
35644;SDS011;21764;52.042;6.830;2023-03-14T09:06:48;4.97;;;1.10;;
35644;SDS011;21764;52.042;6.830;2023-03-14T09:11:49;3.33;;;0.77;;
35644;SDS011;21764;52.042;6.830;2023-03-14T09:16:49;5.00;;;1.20;;
35644;SDS011;21764;52.042;6.830;2023-03-14T09:21:50;2.70;;;0.90;;
35644;SDS011;21764;52.042;6.830;2023-03-14T09:26:51;2.97;;;0.95;;
35644;SDS011;21764;52.042;6.830;2023-03-14T09:31:52;4.07;;;1.10;;
35644;SDS011;21764;52.042;6.830;2023-03-14T09:36:52;5.90;;;1.70;;
35644;SDS011;21764;52.042;6.830;2023-03-14T09:41:55;4.43;;;1.23;;
35644;SDS011;21764;52.042;6.830;2023-03-14T09:47:00;6.70;;;1.55;;
35644;SDS011;21764;52.042;6.830;2023-03-14T09:52:10;5.22;;;1.20;;
35644;SDS011;21764;52.042;6.830;2023-03-14T09:57:19;5.78;;;2.33;;
35644;SDS011;21764;52.042;6.830;2023-03-14T10:02:24;2.80;;;0.80;;
35644;SDS011;21764;52.042;6.830;2023-03-14T10:07:30;2.13;;;0.88;;
35644;SDS011;21764;52.042;6.830;2023-03-14T10:12:33;2.65;;;0.80;;
35644;SDS011;21764;52.042;6.830;2023-03-14T10:17:43;2.45;;;0.73;;
35644;SDS011;21764;52.042;6.830;2023-03-14T10:22:47;4.80;;;1.35;;
35644;SDS011;21764;52.042;6.830;2023-03-14T10:27:51;4.13;;;1.02;;
35644;SDS011;21764;52.042;6.830;2023-03-14T10:32:52;16.63;;;7.55;;
35644;SDS011;21764;52.042;6.830;2023-03-14T10:37:56;5.63;;;0.93;;
35644;SDS011;21764;52.042;6.830;2023-03-14T10:43:03;5.30;;;1.08;;
35644;SDS011;21764;52.042;6.830;2023-03-14T10:53:23;10.45;;;1.52;;
35644;SDS011;21764;52.042;6.830;2023-03-14T10:58:25;9.82;;;2.10;;
35644;SDS011;21764;52.042;6.830;2023-03-14T11:03:29;11.55;;;3.53;;
35644;SDS011;21764;52.042;6.830;2023-03-14T11:13:45;13.10;;;2.40;;
35644;SDS011;21764;52.042;6.830;2023-03-14T11:29:40;16.02;;;2.40;;
35644;SDS011;21764;52.042;6.830;2023-03-14T11:34:52;14.85;;;3.90;;
35644;SDS011;21764;52.042;6.830;2023-03-14T11:39:59;25.80;;;3.75;;
35644;SDS011;21764;52.042;6.830;2023-03-14T11:45:16;31.57;;;4.57;;
35644;SDS011;21764;52.042;6.830;2023-03-14T11:50:24;25.27;;;3.97;;
35644;SDS011;21764;52.042;6.830;2023-03-14T11:55:34;26.40;;;3.28;;
35644;SDS011;21764;52.042;6.830;2023-03-14T12:00:37;36.42;;;4.25;;
35644;SDS011;21764;52.042;6.830;2023-03-14T12:05:40;30.30;;;4.22;;
35644;SDS011;21764;52.042;6.830;2023-03-14T12:10:48;23.45;;;5.00;;
35644;SDS011;21764;52.042;6.830;2023-03-14T12:15:59;33.25;;;4.07;;
35644;SDS011;21764;52.042;6.830;2023-03-14T12:21:04;20.65;;;3.33;;
35644;SDS011;21764;52.042;6.830;2023-03-14T12:37:16;31.02;;;4.85;;
35644;SDS011;21764;52.042;6.830;2023-03-14T12:42:11;30.02;;;5.07;;
35644;SDS011;21764;52.042;6.830;2023-03-14T12:52:19;29.90;;;4.25;;
35644;SDS011;21764;52.042;6.830;2023-03-14T12:57:37;30.30;;;5.32;;
35644;SDS011;21764;52.042;6.830;2023-03-14T13:03:42;20.38;;;3.00;;
35644;SDS011;21764;52.042;6.830;2023-03-14T13:08:43;24.73;;;4.65;;
35644;SDS011;21764;52.042;6.830;2023-03-14T13:13:49;39.63;;;10.05;;
35644;SDS011;21764;52.042;6.830;2023-03-14T13:19:15;18.38;;;3.85;;
35644;SDS011;21764;52.042;6.830;2023-03-14T13:29:28;26.33;;;4.88;;
35644;SDS011;21764;52.042;6.830;2023-03-14T13:34:31;22.60;;;3.42;;
35644;SDS011;21764;52.042;6.830;2023-03-14T13:39:33;17.48;;;3.60;;
35644;SDS011;21764;52.042;6.830;2023-03-14T13:44:35;29.80;;;5.60;;
35644;SDS011;21764;52.042;6.830;2023-03-14T13:49:38;17.63;;;3.50;;
35644;SDS011;21764;52.042;6.830;2023-03-14T13:54:39;22.30;;;3.60;;
35644;SDS011;21764;52.042;6.830;2023-03-14T13:59:39;20.00;;;2.88;;
35644;SDS011;21764;52.042;6.830;2023-03-14T14:04:40;16.95;;;2.53;;
35644;SDS011;21764;52.042;6.830;2023-03-14T14:09:41;14.48;;;2.70;;
35644;SDS011;21764;52.042;6.830;2023-03-14T14:14:48;18.55;;;3.00;;
35644;SDS011;21764;52.042;6.830;2023-03-14T14:20:10;14.85;;;2.10;;
35644;SDS011;21764;52.042;6.830;2023-03-14T14:25:31;18.35;;;2.97;;
35644;SDS011;21764;52.042;6.830;2023-03-14T14:30:33;15.23;;;2.85;;
35644;SDS011;21764;52.042;6.830;2023-03-14T14:35:34;15.20;;;2.35;;
35644;SDS011;21764;52.042;6.830;2023-03-14T14:40:35;9.55;;;2.20;;
35644;SDS011;21764;52.042;6.830;2023-03-14T14:45:49;13.77;;;2.22;;
35644;SDS011;21764;52.042;6.830;2023-03-14T14:50:55;21.85;;;2.38;;
35644;SDS011;21764;52.042;6.830;2023-03-14T14:56:03;13.68;;;2.20;;
35644;SDS011;21764;52.042;6.830;2023-03-14T15:01:24;12.80;;;2.20;;
35644;SDS011;21764;52.042;6.830;2023-03-14T15:06:30;12.40;;;2.80;;
35644;SDS011;21764;52.042;6.830;2023-03-14T15:11:31;15.27;;;2.28;;
35644;SDS011;21764;52.042;6.830;2023-03-14T15:16:32;8.65;;;1.88;;
35644;SDS011;21764;52.042;6.830;2023-03-14T15:21:33;13.98;;;2.33;;
35644;SDS011;21764;52.042;6.830;2023-03-14T15:26:33;10.98;;;2.50;;
35644;SDS011;21764;52.042;6.830;2023-03-14T15:31:34;12.18;;;2.88;;
35644;SDS011;21764;52.042;6.830;2023-03-14T15:36:36;26.98;;;3.65;;
35644;SDS011;21764;52.042;6.830;2023-03-14T15:41:37;49.83;;;17.38;;
35644;SDS011;21764;52.042;6.830;2023-03-14T15:46:38;23.70;;;6.13;;
35644;SDS011;21764;52.042;6.830;2023-03-14T15:51:39;24.00;;;4.78;;
35644;SDS011;21764;52.042;6.830;2023-03-14T15:56:39;17.75;;;2.75;;
35644;SDS011;21764;52.042;6.830;2023-03-14T16:01:40;16.85;;;2.53;;
35644;SDS011;21764;52.042;6.830;2023-03-14T16:06:41;18.33;;;2.90;;
35644;SDS011;21764;52.042;6.830;2023-03-14T16:11:43;27.80;;;3.40;;
35644;SDS011;21764;52.042;6.830;2023-03-14T16:16:46;16.70;;;3.35;;
35644;SDS011;21764;52.042;6.830;2023-03-14T16:21:46;15.98;;;3.28;;
35644;SDS011;21764;52.042;6.830;2023-03-14T16:26:47;30.90;;;7.78;;
35644;SDS011;21764;52.042;6.830;2023-03-14T16:31:48;21.40;;;4.38;;
35644;SDS011;21764;52.042;6.830;2023-03-14T16:36:48;17.38;;;3.60;;
35644;SDS011;21764;52.042;6.830;2023-03-14T16:41:52;38.05;;;11.68;;
35644;SDS011;21764;52.042;6.830;2023-03-14T16:46:52;27.58;;;5.30;;
35644;SDS011;21764;52.042;6.830;2023-03-14T16:51:53;16.65;;;3.30;;
35644;SDS011;21764;52.042;6.830;2023-03-14T16:56:54;22.60;;;3.50;;
35644;SDS011;21764;52.042;6.830;2023-03-14T17:01:55;13.00;;;2.95;;
35644;SDS011;21764;52.042;6.830;2023-03-14T17:06:56;17.98;;;2.85;;
35644;SDS011;21764;52.042;6.830;2023-03-14T17:11:57;14.52;;;3.10;;
35644;SDS011;21764;52.042;6.830;2023-03-14T17:16:59;18.90;;;3.30;;
35644;SDS011;21764;52.042;6.830;2023-03-14T17:21:59;15.32;;;2.75;;
35644;SDS011;21764;52.042;6.830;2023-03-14T17:27:00;10.68;;;2.85;;
35644;SDS011;21764;52.042;6.830;2023-03-14T17:32:00;14.05;;;3.00;;
35644;SDS011;21764;52.042;6.830;2023-03-14T17:37:01;16.70;;;3.75;;
35644;SDS011;21764;52.042;6.830;2023-03-14T17:42:02;17.30;;;4.00;;
35644;SDS011;21764;52.042;6.830;2023-03-14T17:47:03;16.17;;;4.60;;
35644;SDS011;21764;52.042;6.830;2023-03-14T17:52:04;21.30;;;5.80;;
35644;SDS011;21764;52.042;6.830;2023-03-14T17:57:07;16.98;;;4.30;;
35644;SDS011;21764;52.042;6.830;2023-03-14T18:02:08;20.83;;;5.40;;
35644;SDS011;21764;52.042;6.830;2023-03-14T18:07:10;23.95;;;8.25;;
35644;SDS011;21764;52.042;6.830;2023-03-14T18:12:12;16.80;;;4.13;;
35644;SDS011;21764;52.042;6.830;2023-03-14T18:17:14;25.42;;;6.22;;
35644;SDS011;21764;52.042;6.830;2023-03-14T18:22:15;37.50;;;12.63;;
35644;SDS011;21764;52.042;6.830;2023-03-14T18:27:16;17.80;;;4.35;;
35644;SDS011;21764;52.042;6.830;2023-03-14T18:32:17;17.80;;;3.90;;
35644;SDS011;21764;52.042;6.830;2023-03-14T18:37:17;19.48;;;3.78;;
35644;SDS011;21764;52.042;6.830;2023-03-14T18:42:18;28.95;;;4.35;;
35644;SDS011;21764;52.042;6.830;2023-03-14T18:47:18;18.00;;;4.82;;
35644;SDS011;21764;52.042;6.830;2023-03-14T18:52:19;28.52;;;6.32;;
35644;SDS011;21764;52.042;6.830;2023-03-14T18:57:20;111.60;;;44.50;;
35644;SDS011;21764;52.042;6.830;2023-03-14T19:02:22;150.70;;;55.78;;
35644;SDS011;21764;52.042;6.830;2023-03-14T19:07:23;34.10;;;14.27;;
35644;SDS011;21764;52.042;6.830;2023-03-14T19:12:24;52.60;;;19.73;;
35644;SDS011;21764;52.042;6.830;2023-03-14T19:17:26;63.33;;;27.70;;
35644;SDS011;21764;52.042;6.830;2023-03-14T19:22:27;20.35;;;4.38;;
35644;SDS011;21764;52.042;6.830;2023-03-14T19:27:27;28.27;;;6.90;;
35644;SDS011;21764;52.042;6.830;2023-03-14T19:32:28;26.73;;;5.63;;
35644;SDS011;21764;52.042;6.830;2023-03-14T19:37:29;18.90;;;4.28;;
35644;SDS011;21764;52.042;6.830;2023-03-14T19:42:29;25.75;;;4.88;;
35644;SDS011;21764;52.042;6.830;2023-03-14T19:47:30;22.77;;;4.28;;
35644;SDS011;21764;52.042;6.830;2023-03-14T19:52:31;31.17;;;7.70;;
35644;SDS011;21764;52.042;6.830;2023-03-14T19:57:31;63.78;;;19.10;;
35644;SDS011;21764;52.042;6.830;2023-03-14T20:02:32;42.50;;;11.75;;
35644;SDS011;21764;52.042;6.830;2023-03-14T20:07:33;29.90;;;6.10;;
35644;SDS011;21764;52.042;6.830;2023-03-14T20:12:34;27.27;;;5.95;;
35644;SDS011;21764;52.042;6.830;2023-03-14T20:17:35;20.45;;;4.90;;
35644;SDS011;21764;52.042;6.830;2023-03-14T20:22:37;15.63;;;4.85;;
35644;SDS011;21764;52.042;6.830;2023-03-14T20:27:39;21.67;;;5.05;;
35644;SDS011;21764;52.042;6.830;2023-03-14T20:32:41;18.90;;;5.38;;
35644;SDS011;21764;52.042;6.830;2023-03-14T20:37:42;19.05;;;4.60;;
35644;SDS011;21764;52.042;6.830;2023-03-14T20:42:43;25.85;;;4.82;;
35644;SDS011;21764;52.042;6.830;2023-03-14T20:47:43;21.48;;;4.32;;
35644;SDS011;21764;52.042;6.830;2023-03-14T20:52:44;13.77;;;3.15;;
35644;SDS011;21764;52.042;6.830;2023-03-14T20:57:45;23.13;;;3.30;;
35644;SDS011;21764;52.042;6.830;2023-03-14T21:02:45;24.10;;;4.10;;
35644;SDS011;21764;52.042;6.830;2023-03-14T21:07:46;33.00;;;4.20;;
35644;SDS011;21764;52.042;6.830;2023-03-14T21:12:47;17.75;;;4.15;;
35644;SDS011;21764;52.042;6.830;2023-03-14T21:17:47;20.05;;;4.55;;
35644;SDS011;21764;52.042;6.830;2023-03-14T21:22:48;23.13;;;4.40;;
35644;SDS011;21764;52.042;6.830;2023-03-14T21:27:49;23.48;;;4.15;;
35644;SDS011;21764;52.042;6.830;2023-03-14T21:32:50;26.95;;;4.97;;
35644;SDS011;21764;52.042;6.830;2023-03-14T21:37:51;26.33;;;5.63;;
35644;SDS011;21764;52.042;6.830;2023-03-14T21:42:52;23.00;;;4.82;;
35644;SDS011;21764;52.042;6.830;2023-03-14T21:47:53;18.95;;;4.47;;
35644;SDS011;21764;52.042;6.830;2023-03-14T21:52:55;27.10;;;4.45;;
35644;SDS011;21764;52.042;6.830;2023-03-14T21:57:58;19.17;;;4.97;;
35644;SDS011;21764;52.042;6.830;2023-03-14T22:03:01;26.48;;;3.80;;
35644;SDS011;21764;52.042;6.830;2023-03-14T22:08:02;15.85;;;3.50;;
35644;SDS011;21764;52.042;6.830;2023-03-14T22:13:02;22.00;;;3.78;;
35644;SDS011;21764;52.042;6.830;2023-03-14T22:18:03;13.27;;;2.75;;
35644;SDS011;21764;52.042;6.830;2023-03-14T22:23:04;24.08;;;4.00;;
35644;SDS011;21764;52.042;6.830;2023-03-14T22:28:05;26.80;;;3.63;;
35644;SDS011;21764;52.042;6.830;2023-03-14T22:33:05;21.70;;;4.60;;
35644;SDS011;21764;52.042;6.830;2023-03-14T22:38:06;9.90;;;3.33;;
35644;SDS011;21764;52.042;6.830;2023-03-14T22:43:07;14.43;;;3.63;;
35644;SDS011;21764;52.042;6.830;2023-03-14T22:48:08;23.75;;;4.22;;
35644;SDS011;21764;52.042;6.830;2023-03-14T22:59:05;20.52;;;3.55;;
35644;SDS011;21764;52.042;6.830;2023-03-14T23:04:06;23.15;;;3.90;;
35644;SDS011;21764;52.042;6.830;2023-03-14T23:09:07;28.38;;;5.55;;
35644;SDS011;21764;52.042;6.830;2023-03-14T23:14:08;18.65;;;3.78;;
35644;SDS011;21764;52.042;6.830;2023-03-14T23:19:09;17.88;;;3.38;;
35644;SDS011;21764;52.042;6.830;2023-03-14T23:24:10;14.38;;;3.53;;
35644;SDS011;21764;52.042;6.830;2023-03-14T23:29:11;19.33;;;3.28;;
35644;SDS011;21764;52.042;6.830;2023-03-14T23:34:15;14.63;;;3.00;;
35644;SDS011;21764;52.042;6.830;2023-03-14T23:39:15;16.88;;;3.53;;
35644;SDS011;21764;52.042;6.830;2023-03-14T23:44:16;12.50;;;2.83;;
35644;SDS011;21764;52.042;6.830;2023-03-14T23:49:16;17.58;;;3.05;;
35644;SDS011;21764;52.042;6.830;2023-03-14T23:54:17;20.48;;;3.55;;
35644;SDS011;21764;52.042;6.830;2023-03-14T23:59:18;12.38;;;3.40;;
